createdAt,value
2023-03-24T00:00:52.163Z,27.16
2023-03-24T00:01:55.628Z,27.14
2023-03-24T00:03:00.381Z,27.15
2023-03-24T00:04:05.031Z,27.15
2023-03-24T00:05:10.252Z,27.15
2023-03-24T00:06:13.249Z,27.15
2023-03-24T00:07:16.099Z,27.16
2023-03-24T00:08:19.459Z,27.15
2023-03-24T00:09:22.829Z,27.16
2023-03-24T00:10:27.841Z,27.17
2023-03-24T00:11:32.892Z,27.17
2023-03-24T00:12:38.246Z,27.17
2023-03-24T00:13:42.684Z,27.17
2023-03-24T00:14:48.801Z,27.18
2023-03-24T00:15:51.619Z,27.18
2023-03-24T00:16:56.396Z,27.18
2023-03-24T00:18:01.588Z,27.19
2023-03-24T00:19:05.429Z,27.19
2023-03-24T00:20:13.262Z,27.19
2023-03-24T00:21:15.976Z,27.20
2023-03-24T00:22:21.375Z,27.20
2023-03-24T00:23:29.995Z,27.20
2023-03-24T00:24:33.922Z,27.20
2023-03-24T00:25:36.835Z,27.20
2023-03-24T00:26:40.473Z,27.21
2023-03-24T00:27:44.397Z,27.20
2023-03-24T00:28:49.374Z,27.21
2023-03-24T00:29:53.249Z,27.21
2023-03-24T00:30:56.267Z,27.21
2023-03-24T00:32:01.210Z,27.21
2023-03-24T00:33:04.294Z,27.22
2023-03-24T00:34:08.233Z,27.22
2023-03-24T00:35:14.237Z,27.23
2023-03-24T00:36:19.956Z,27.22
2023-03-24T00:37:23.505Z,27.22
2023-03-24T00:38:28.183Z,27.22
2023-03-24T00:39:31.042Z,27.23
2023-03-24T00:40:35.069Z,27.23
2023-03-24T00:41:37.988Z,27.23
2023-03-24T00:42:42.256Z,27.23
2023-03-24T00:43:47.951Z,27.24
2023-03-24T00:44:52.527Z,27.24
2023-03-24T00:46:01.395Z,27.24
2023-03-24T00:47:06.528Z,27.24
2023-03-24T00:48:11.491Z,27.23
2023-03-24T00:49:15.160Z,27.23
2023-03-24T00:50:19.806Z,27.23
2023-03-24T00:51:22.682Z,27.21
2023-03-24T00:52:29.388Z,27.22
2023-03-24T00:53:32.975Z,27.21
2023-03-24T00:54:37.746Z,27.22
2023-03-24T00:55:45.256Z,27.21
2023-03-24T00:56:49.116Z,27.22
2023-03-24T00:57:54.900Z,27.21
2023-03-24T00:59:01.014Z,27.23
2023-03-24T01:01:25.432Z,27.33
2023-03-24T01:02:30.655Z,27.21
2023-03-24T01:03:34.880Z,27.19
2023-03-24T01:04:41.799Z,27.20
2023-03-24T01:05:47.410Z,27.20
2023-03-24T01:06:52.949Z,27.18
2023-03-24T01:09:14.793Z,27.30
2023-03-24T01:10:21.922Z,27.18
2023-03-24T01:11:25.994Z,27.17
2023-03-24T01:13:46.954Z,27.28
2023-03-24T01:14:50.262Z,27.16
2023-03-24T01:15:53.509Z,27.16
2023-03-24T01:16:57.871Z,27.15
2023-03-24T01:18:04.846Z,27.16
2023-03-24T01:19:08.691Z,27.16
2023-03-24T01:20:14.216Z,27.16
2023-03-24T01:21:18.087Z,27.16
2023-03-24T01:22:21.272Z,27.17
2023-03-24T01:23:25.482Z,27.17
2023-03-24T01:24:29.090Z,27.17
2023-03-24T01:25:35.750Z,27.16
2023-03-24T01:26:38.566Z,27.16
2023-03-24T01:27:41.284Z,27.16
2023-03-24T01:28:45.020Z,27.16
2023-03-24T01:29:47.930Z,27.16
2023-03-24T01:30:52.966Z,27.15
2023-03-24T01:31:56.078Z,27.15
2023-03-24T01:33:01.806Z,27.16
2023-03-24T01:34:05.661Z,27.15
2023-03-24T01:35:10.714Z,27.16
2023-03-24T01:36:15.644Z,27.16
2023-03-24T01:37:18.424Z,27.17
2023-03-24T01:38:21.254Z,27.17
2023-03-24T01:39:25.249Z,27.15
2023-03-24T01:40:29.781Z,27.15
2023-03-24T01:41:38.321Z,27.14
2023-03-24T01:42:41.953Z,27.14
2023-03-24T01:43:58.283Z,27.14
2023-03-24T01:45:02.590Z,27.13
2023-03-24T01:46:21.394Z,27.12
2023-03-24T01:47:26.952Z,27.12
2023-03-24T01:48:54.788Z,27.12
2023-03-24T01:49:59.986Z,27.12
2023-03-24T01:51:15.733Z,27.12
2023-03-24T01:52:24.345Z,27.11
2023-03-24T01:53:28.125Z,27.11
2023-03-24T01:54:38.875Z,27.10
2023-03-24T01:55:43.472Z,27.10
2023-03-24T01:56:54.294Z,27.11
2023-03-24T01:57:59.861Z,27.10
2023-03-24T01:59:07.526Z,27.11
2023-03-24T02:00:15.797Z,27.11
2023-03-24T02:01:30.290Z,27.12
2023-03-24T02:02:35.503Z,27.13
2023-03-24T02:03:39.775Z,27.13
2023-03-24T02:04:45.025Z,27.14
2023-03-24T02:05:50.161Z,27.14
2023-03-24T02:06:53.899Z,27.16
2023-03-24T02:08:17.225Z,27.16
2023-03-24T02:09:22.215Z,27.16
2023-03-24T02:10:25.697Z,27.16
2023-03-24T02:11:32.003Z,27.16
2023-03-24T02:12:37.476Z,27.17
2023-03-24T02:13:41.005Z,27.17
2023-03-24T02:14:43.920Z,27.18
2023-03-24T02:16:17.511Z,27.18
2023-03-24T02:17:43.636Z,27.18
2023-03-24T02:19:18.808Z,27.19
2023-03-24T02:20:56.106Z,27.19
2023-03-24T02:22:17.515Z,27.18
2023-03-24T02:23:41.315Z,27.15
2023-03-24T02:25:02.887Z,27.14
2023-03-24T02:26:35.798Z,27.11
2023-03-24T02:28:03.691Z,27.08
2023-03-24T02:29:16.063Z,27.07
2023-03-24T02:30:44.442Z,27.05
2023-03-24T02:32:07.678Z,27.03
2023-03-24T02:33:17.180Z,27.02
2023-03-24T02:34:46.924Z,27.00
2023-03-24T02:37:32.235Z,27.08
2023-03-24T02:39:02.435Z,26.98
2023-03-24T02:40:14.921Z,26.96
2023-03-24T02:41:38.302Z,26.95
2023-03-24T02:42:54.017Z,26.97
2023-03-24T02:45:40.817Z,27.06
2023-03-24T02:46:49.864Z,26.94
2023-03-24T02:48:32.817Z,26.94
2023-03-24T02:49:51.057Z,26.94
2023-03-24T02:51:10.044Z,26.95
2023-03-24T02:52:22.437Z,26.96
2023-03-24T02:53:45.175Z,26.95
2023-03-24T02:55:10.747Z,26.95
2023-03-24T02:56:22.876Z,26.95
2023-03-24T02:57:35.667Z,26.94
2023-03-24T02:59:04.299Z,26.95
2023-03-24T03:00:16.404Z,26.96
2023-03-24T03:01:32.535Z,26.94
2023-03-24T03:02:43.662Z,26.94
2023-03-24T03:03:53.018Z,26.95
2023-03-24T03:05:13.315Z,26.95
2023-03-24T03:07:40.711Z,27.06
2023-03-24T03:08:43.846Z,26.96
2023-03-24T03:09:53.029Z,26.96
2023-03-24T03:10:56.041Z,26.97
2023-03-24T03:11:58.992Z,26.98
2023-03-24T03:13:02.115Z,26.99
2023-03-24T03:14:11.033Z,27.00
2023-03-24T03:15:21.532Z,27.01
2023-03-24T03:16:27.981Z,27.03
2023-03-24T03:17:37.578Z,27.04
2023-03-24T03:18:49.806Z,27.05
2023-03-24T03:19:55.647Z,27.05
2023-03-24T03:21:03.776Z,27.06
2023-03-24T03:22:09.185Z,27.05
2023-03-24T03:23:13.747Z,27.06
2023-03-24T03:24:19.641Z,27.06
2023-03-24T03:25:24.572Z,27.07
2023-03-24T03:26:28.097Z,27.08
2023-03-24T03:27:33.429Z,27.07
2023-03-24T03:28:38.834Z,27.07
2023-03-24T03:29:53.560Z,27.09
2023-03-24T03:31:02.013Z,27.09
2023-03-24T03:32:08.810Z,27.11
2023-03-24T03:33:21.520Z,27.11
2023-03-24T03:34:41.768Z,27.11
2023-03-24T03:37:43.108Z,27.23
2023-03-24T03:40:34.221Z,27.19
2023-03-24T03:41:38.846Z,27.08
2023-03-24T03:42:41.861Z,27.06
2023-03-24T03:43:45.784Z,27.05
2023-03-24T03:44:48.524Z,27.05
2023-03-24T03:45:52.089Z,27.07
2023-03-24T03:46:56.841Z,27.07
2023-03-24T03:48:02.197Z,27.07
2023-03-24T03:49:06.271Z,27.07
2023-03-24T03:50:09.558Z,27.07
2023-03-24T03:51:14.480Z,27.09
2023-03-24T03:52:25.500Z,27.09
2023-03-24T03:54:46.877Z,27.20
2023-03-24T03:55:49.791Z,27.11
2023-03-24T03:56:54.063Z,27.09
2023-03-24T03:58:03.099Z,27.09
2023-03-24T03:59:07.809Z,27.11
2023-03-24T04:00:16.483Z,27.12
2023-03-24T04:01:27.273Z,27.12
2023-03-24T04:02:47.423Z,27.12
2023-03-24T04:05:26.057Z,27.23
2023-03-24T04:06:47.482Z,27.13
2023-03-24T04:08:16.795Z,27.11
2023-03-24T04:09:53.725Z,27.12
2023-03-24T04:11:06.725Z,27.11
2023-03-24T04:12:21.385Z,27.09
2023-03-24T04:13:51.176Z,27.09
2023-03-24T04:15:05.429Z,27.09
2023-03-24T04:16:44.790Z,27.07
2023-03-24T04:18:03.284Z,27.07
2023-03-24T04:19:40.682Z,27.07
2023-03-24T04:20:51.793Z,27.06
2023-03-24T04:22:12.444Z,27.07
2023-03-24T04:23:30.662Z,27.07
2023-03-24T04:25:00.011Z,27.06
2023-03-24T04:26:14.910Z,27.05
2023-03-24T04:27:27.343Z,27.05
2023-03-24T04:28:54.452Z,27.05
2023-03-24T04:30:11.207Z,27.06
2023-03-24T04:31:29.185Z,27.04
2023-03-24T04:32:57.999Z,27.05
2023-03-24T04:34:08.886Z,27.05
2023-03-24T04:35:15.186Z,27.05
2023-03-24T04:36:45.107Z,27.06
2023-03-24T04:37:52.972Z,27.05
2023-03-24T04:38:57.458Z,27.06
2023-03-24T04:40:05.565Z,27.05
2023-03-24T04:41:09.042Z,27.06
2023-03-24T04:42:21.635Z,27.06
2023-03-24T04:43:26.983Z,27.07
2023-03-24T04:44:32.078Z,27.08
2023-03-24T04:47:07.940Z,27.20
2023-03-24T04:48:12.143Z,27.09
2023-03-24T04:49:18.458Z,27.10
2023-03-24T04:51:43.049Z,27.23
2023-03-24T04:52:53.387Z,27.13
2023-03-24T04:53:55.699Z,27.14
2023-03-24T04:54:58.599Z,27.16
2023-03-24T04:56:09.475Z,27.16
2023-03-24T04:57:22.975Z,27.18
2023-03-24T04:58:27.140Z,27.19
2023-03-24T04:59:31.870Z,27.20
2023-03-24T05:00:36.921Z,27.19
2023-03-24T05:01:41.200Z,27.21
2023-03-24T05:03:03.992Z,27.22
2023-03-24T05:04:07.808Z,27.22
2023-03-24T05:05:12.407Z,27.23
2023-03-24T05:06:17.146Z,27.24
2023-03-24T05:07:20.878Z,27.24
2023-03-24T05:08:27.153Z,27.24
2023-03-24T05:09:33.047Z,27.24
2023-03-24T05:10:37.720Z,27.24
2023-03-24T05:11:41.478Z,27.25
2023-03-24T05:12:44.515Z,27.25
2023-03-24T05:14:04.778Z,27.26
2023-03-24T05:15:09.994Z,27.26
2023-03-24T05:16:14.005Z,27.26
2023-03-24T05:17:18.404Z,27.27
2023-03-24T05:18:21.804Z,27.26
2023-03-24T05:19:24.734Z,27.27
2023-03-24T05:20:28.158Z,27.26
2023-03-24T05:21:33.721Z,27.26
2023-03-24T05:22:38.788Z,27.27
2023-03-24T05:23:41.370Z,27.27
2023-03-24T05:24:44.177Z,27.29
2023-03-24T05:25:47.240Z,27.30
2023-03-24T05:26:51.004Z,27.29
2023-03-24T05:27:55.639Z,27.30
2023-03-24T05:29:00.286Z,27.31
2023-03-24T05:31:18.649Z,27.42
2023-03-24T05:32:25.663Z,27.31
2023-03-24T05:33:28.277Z,27.31
2023-03-24T05:34:31.613Z,27.31
2023-03-24T05:35:36.327Z,27.31
2023-03-24T05:36:39.482Z,27.31
2023-03-24T05:37:43.329Z,27.32
2023-03-24T05:38:46.516Z,27.32
2023-03-24T05:39:49.146Z,27.33
2023-03-24T05:42:10.901Z,27.44
2023-03-24T05:43:14.284Z,27.31
2023-03-24T05:44:18.645Z,27.31
2023-03-24T05:45:24.519Z,27.31
2023-03-24T05:46:27.468Z,27.32
2023-03-24T05:47:30.995Z,27.32
2023-03-24T05:48:33.649Z,27.31
2023-03-24T05:49:52.320Z,27.32
2023-03-24T05:50:56.283Z,27.32
2023-03-24T05:51:59.762Z,27.32
2023-03-24T05:53:03.171Z,27.31
2023-03-24T05:55:41.120Z,27.42
2023-03-24T05:56:46.742Z,27.30
2023-03-24T05:58:00.441Z,27.29
2023-03-24T05:59:05.894Z,27.30
2023-03-24T06:00:23.196Z,27.29
2023-03-24T06:01:28.287Z,27.28
2023-03-24T06:02:32.819Z,27.29
2023-03-24T06:03:41.169Z,27.28
2023-03-24T06:04:48.248Z,27.27
2023-03-24T06:05:52.240Z,27.27
2023-03-24T06:06:55.381Z,27.27
2023-03-24T06:08:01.557Z,27.27
2023-03-24T06:09:07.596Z,27.27
2023-03-24T06:10:11.283Z,27.29
2023-03-24T06:11:16.437Z,27.27
2023-03-24T06:12:22.068Z,27.27
2023-03-24T06:13:27.003Z,27.28
2023-03-24T06:14:29.993Z,27.28
2023-03-24T06:15:34.857Z,27.28
2023-03-24T06:16:39.875Z,27.30
2023-03-24T06:17:45.863Z,27.29
2023-03-24T06:18:52.533Z,27.31
2023-03-24T06:20:03.736Z,27.30
2023-03-24T06:21:08.029Z,27.30
2023-03-24T06:22:12.290Z,27.30
2023-03-24T06:23:15.036Z,27.31
2023-03-24T06:24:23.125Z,27.32
2023-03-24T06:25:27.730Z,27.31
2023-03-24T06:26:37.837Z,27.32
2023-03-24T06:27:47.356Z,27.31
2023-03-24T06:28:51.436Z,27.32
2023-03-24T06:29:54.750Z,27.31
2023-03-24T06:30:58.167Z,27.31
2023-03-24T06:32:04.513Z,27.32
2023-03-24T06:33:11.815Z,27.31
2023-03-24T06:34:15.952Z,27.32
2023-03-24T06:35:22.011Z,27.32
2023-03-24T06:36:26.502Z,27.31
2023-03-24T06:37:29.984Z,27.31
2023-03-24T06:38:34.645Z,27.31
2023-03-24T06:39:38.079Z,27.31
2023-03-24T06:40:40.862Z,27.33
2023-03-24T06:41:43.627Z,27.27
2023-03-24T06:42:46.170Z,27.27
2023-03-24T06:43:48.831Z,27.31
2023-03-24T06:44:51.882Z,27.32
2023-03-24T06:45:54.469Z,27.32
2023-03-24T06:46:58.828Z,27.32
2023-03-24T06:48:02.767Z,27.32
2023-03-24T06:49:06.777Z,27.32
2023-03-24T06:50:11.196Z,27.32
2023-03-24T06:51:15.344Z,27.32
2023-03-24T06:52:18.464Z,27.32
2023-03-24T06:53:21.421Z,27.32
2023-03-24T06:54:25.561Z,27.31
2023-03-24T06:55:28.577Z,27.32
2023-03-24T06:56:31.805Z,27.32
2023-03-24T06:57:35.988Z,27.32
2023-03-24T06:59:58.523Z,27.44
2023-03-24T07:01:02.910Z,27.31
2023-03-24T07:02:12.011Z,27.31
2023-03-24T07:03:16.620Z,27.31
2023-03-24T07:04:21.138Z,27.32
2023-03-24T07:05:33.641Z,27.33
2023-03-24T07:06:49.837Z,27.31
2023-03-24T07:08:51.806Z,27.32
2023-03-24T07:09:55.171Z,27.32
2023-03-24T07:10:58.978Z,27.31
2023-03-24T07:12:02.951Z,27.31
2023-03-24T07:13:06.422Z,27.31
2023-03-24T07:14:10.307Z,27.32
2023-03-24T07:15:12.930Z,27.32
2023-03-24T07:16:17.718Z,27.32
2023-03-24T07:17:22.012Z,27.32
2023-03-24T07:18:31.020Z,27.33
2023-03-24T07:19:38.804Z,27.32
2023-03-24T07:20:53.477Z,27.32
2023-03-24T07:21:57.923Z,27.32
2023-03-24T07:23:03.285Z,27.31
2023-03-24T07:24:08.934Z,27.31
2023-03-24T07:25:25.332Z,27.31
2023-03-24T07:26:30.220Z,27.31
2023-03-24T07:27:37.018Z,27.30
2023-03-24T07:28:39.692Z,27.30
2023-03-24T07:29:42.775Z,27.31
2023-03-24T07:31:04.696Z,27.31
2023-03-24T07:32:08.647Z,27.30
2023-03-24T07:33:11.844Z,27.30
2023-03-24T07:34:15.867Z,27.31
2023-03-24T07:35:23.778Z,27.30
2023-03-24T07:36:26.926Z,27.29
2023-03-24T07:37:30.429Z,27.29
2023-03-24T07:38:34.107Z,27.29
2023-03-24T07:39:39.010Z,27.31
2023-03-24T07:40:42.099Z,27.31
2023-03-24T07:41:45.189Z,27.31
2023-03-24T07:42:50.942Z,27.32
2023-03-24T07:44:12.311Z,27.32
2023-03-24T07:45:18.134Z,27.33
2023-03-24T07:46:21.254Z,27.32
2023-03-24T07:47:26.493Z,27.33
2023-03-24T07:48:30.399Z,27.33
2023-03-24T07:49:33.432Z,27.34
2023-03-24T07:50:38.110Z,27.34
2023-03-24T07:51:43.082Z,27.34
2023-03-24T07:53:08.047Z,27.34
2023-03-24T07:54:10.787Z,27.34
2023-03-24T07:55:22.299Z,27.33
2023-03-24T07:56:26.858Z,27.32
2023-03-24T07:57:32.389Z,27.31
2023-03-24T07:58:35.505Z,27.29
2023-03-24T07:59:40.564Z,27.29
2023-03-24T08:00:48.302Z,27.28
2023-03-24T08:01:56.943Z,27.27
2023-03-24T08:03:01.182Z,27.25
2023-03-24T08:04:26.559Z,27.25
2023-03-24T08:05:41.079Z,27.23
2023-03-24T08:07:05.761Z,27.21
2023-03-24T08:08:08.265Z,27.20
2023-03-24T08:09:11.937Z,27.17
2023-03-24T08:10:15.400Z,27.17
2023-03-24T08:11:18.687Z,27.16
2023-03-24T08:12:22.187Z,27.14
2023-03-24T08:13:26.340Z,27.15
2023-03-24T08:14:29.708Z,27.14
2023-03-24T08:15:32.335Z,27.14
2023-03-24T08:16:35.461Z,27.14
2023-03-24T08:17:38.260Z,27.13
2023-03-24T08:18:40.988Z,27.13
2023-03-24T08:19:58.258Z,27.13
2023-03-24T08:20:49.051Z,27.13
2023-03-24T08:21:52.665Z,27.12
2023-03-24T08:22:55.713Z,27.13
2023-03-24T08:23:58.353Z,27.13
2023-03-24T08:25:00.905Z,27.13
2023-03-24T08:26:03.443Z,27.12
2023-03-24T08:27:07.227Z,27.11
2023-03-24T08:28:10.347Z,27.12
2023-03-24T08:29:13.297Z,27.11
2023-03-24T08:30:18.115Z,27.12
2023-03-24T08:31:20.816Z,27.12
2023-03-24T08:32:23.851Z,27.11
2023-03-24T08:33:26.529Z,27.12
2023-03-24T08:34:30.398Z,27.11
2023-03-24T08:35:35.534Z,27.11
2023-03-24T08:36:39.244Z,27.11
2023-03-24T08:38:56.861Z,27.21
2023-03-24T08:40:02.615Z,27.09
2023-03-24T08:41:06.604Z,27.11
2023-03-24T08:42:10.731Z,27.10
2023-03-24T08:43:14.478Z,27.10
2023-03-24T08:44:17.896Z,27.09
2023-03-24T08:45:21.311Z,27.09
2023-03-24T08:46:25.089Z,27.09
2023-03-24T08:47:30.177Z,27.09
2023-03-24T08:48:33.457Z,27.09
2023-03-24T08:49:36.192Z,27.09
2023-03-24T08:50:40.304Z,27.09
2023-03-24T08:51:43.480Z,27.09
2023-03-24T08:52:49.108Z,27.08
2023-03-24T08:53:53.953Z,27.09
2023-03-24T08:54:57.057Z,27.08
2023-03-24T08:55:59.857Z,27.07
2023-03-24T08:57:02.424Z,27.07
2023-03-24T08:58:04.970Z,27.08
2023-03-24T08:59:08.349Z,27.07
2023-03-24T09:00:14.296Z,27.07
2023-03-24T09:01:17.776Z,27.08
2023-03-24T09:02:20.879Z,27.08
2023-03-24T09:03:25.465Z,27.07
2023-03-24T09:04:28.417Z,27.08
2023-03-24T09:05:44.030Z,27.07
2023-03-24T09:06:36.831Z,27.06
2023-03-24T09:07:39.501Z,27.06
2023-03-24T09:08:42.501Z,27.08
2023-03-24T09:09:46.017Z,27.07
2023-03-24T09:10:50.695Z,27.06
2023-03-24T09:11:53.119Z,27.07
2023-03-24T09:12:56.878Z,27.06
2023-03-24T09:13:59.942Z,27.07
2023-03-24T09:15:04.306Z,27.07
2023-03-24T09:16:07.683Z,27.06
2023-03-24T09:17:24.888Z,27.07
2023-03-24T09:18:28.721Z,27.07
2023-03-24T09:19:31.498Z,27.07
2023-03-24T09:20:34.289Z,27.07
2023-03-24T09:21:39.014Z,27.07
2023-03-24T09:22:43.913Z,27.07
2023-03-24T09:23:46.633Z,27.06
2023-03-24T09:24:50.144Z,27.08
2023-03-24T09:25:54.303Z,27.08
2023-03-24T09:26:57.099Z,27.07
2023-03-24T09:28:00.837Z,27.08
2023-03-24T09:29:04.737Z,27.07
2023-03-24T09:30:08.955Z,27.08
2023-03-24T09:31:13.415Z,27.07
2023-03-24T09:32:16.246Z,27.08
2023-03-24T09:33:18.793Z,27.08
2023-03-24T09:34:22.173Z,27.08
2023-03-24T09:35:26.698Z,27.08
2023-03-24T09:36:31.081Z,27.08
2023-03-24T09:37:34.999Z,27.09
2023-03-24T09:38:39.004Z,27.08
2023-03-24T09:39:41.630Z,27.09
2023-03-24T09:40:46.617Z,27.08
2023-03-24T09:41:51.225Z,27.08
2023-03-24T09:43:06.171Z,27.08
2023-03-24T09:45:57.145Z,27.18
2023-03-24T09:47:01.890Z,27.07
2023-03-24T09:48:11.056Z,27.06
2023-03-24T09:49:17.807Z,27.05
2023-03-24T09:51:42.199Z,27.14
2023-03-24T09:52:45.293Z,27.04
2023-03-24T09:54:17.243Z,27.03
2023-03-24T09:55:24.300Z,27.02
2023-03-24T09:57:42.627Z,27.13
2023-03-24T09:58:47.532Z,27.02
2023-03-24T09:59:49.900Z,27.02
2023-03-24T10:00:56.024Z,27.02
2023-03-24T10:01:58.041Z,27.01
2023-03-24T10:03:04.705Z,27.01
2023-03-24T10:04:17.550Z,27.01
2023-03-24T10:06:44.640Z,27.13
2023-03-24T10:07:54.151Z,27.02
2023-03-24T10:09:13.470Z,27.02
2023-03-24T10:11:54.758Z,27.13
2023-03-24T10:13:01.041Z,27.01
2023-03-24T10:14:24.939Z,27.01
2023-03-24T10:15:37.864Z,26.99
2023-03-24T10:16:46.343Z,27.00
2023-03-24T10:19:30.311Z,27.09
2023-03-24T10:20:47.815Z,26.98
2023-03-24T10:22:12.180Z,26.97
2023-03-24T10:23:47.910Z,26.97
2023-03-24T10:25:12.347Z,26.95
2023-03-24T10:26:24.973Z,26.94
2023-03-24T10:27:36.035Z,26.93
2023-03-24T10:28:48.188Z,26.90
2023-03-24T10:29:54.061Z,26.89
2023-03-24T10:30:57.235Z,26.88
2023-03-24T10:33:18.973Z,26.98
2023-03-24T10:34:23.396Z,26.87
2023-03-24T10:35:31.832Z,26.87
2023-03-24T10:36:36.422Z,26.87
2023-03-24T10:37:39.847Z,26.87
2023-03-24T10:38:42.816Z,26.89
2023-03-24T10:39:46.360Z,26.90
2023-03-24T10:40:49.310Z,26.92
2023-03-24T10:41:53.744Z,26.92
2023-03-24T10:43:06.995Z,26.94
2023-03-24T10:44:02.311Z,26.94
2023-03-24T10:45:09.579Z,26.96
2023-03-24T10:46:15.722Z,26.99
2023-03-24T10:47:22.500Z,26.99
2023-03-24T10:48:43.756Z,27.00
2023-03-24T10:49:59.166Z,27.00
2023-03-24T10:51:02.264Z,27.02
2023-03-24T10:52:09.525Z,27.03
2023-03-24T10:53:19.399Z,27.04
2023-03-24T10:54:25.151Z,27.02
2023-03-24T10:55:33.130Z,27.03
2023-03-24T10:58:02.985Z,27.16
2023-03-24T11:01:41.088Z,27.15
2023-03-24T11:02:43.755Z,27.04
2023-03-24T11:03:47.151Z,27.05
2023-03-24T11:04:56.106Z,27.04
2023-03-24T11:06:01.297Z,27.06
2023-03-24T11:07:07.876Z,27.05
2023-03-24T11:09:45.150Z,27.17
2023-03-24T11:10:49.654Z,27.07
2023-03-24T11:11:54.098Z,27.06
2023-03-24T11:12:59.372Z,27.07
2023-03-24T11:14:03.827Z,27.07
2023-03-24T11:15:28.917Z,27.06
2023-03-24T11:17:57.120Z,27.17
2023-03-24T11:19:05.312Z,27.06
2023-03-24T11:20:21.178Z,27.05
2023-03-24T11:21:23.684Z,27.03
2023-03-24T11:22:27.642Z,27.03
2023-03-24T11:23:42.200Z,27.03
2023-03-24T11:24:46.377Z,27.02
2023-03-24T11:26:11.013Z,27.02
2023-03-24T11:27:14.480Z,27.01
2023-03-24T11:28:20.307Z,27.00
2023-03-24T11:29:25.095Z,26.99
2023-03-24T11:31:56.493Z,27.09
2023-03-24T11:32:58.962Z,26.98
2023-03-24T11:34:22.395Z,26.98
2023-03-24T11:35:39.069Z,26.98
2023-03-24T11:36:37.449Z,26.97
2023-03-24T11:37:40.759Z,26.98
2023-03-24T11:38:43.685Z,26.98
2023-03-24T11:40:09.452Z,26.99
2023-03-24T11:41:14.311Z,27.00
2023-03-24T11:42:18.585Z,27.01
2023-03-24T11:43:21.713Z,27.01
2023-03-24T11:44:25.167Z,27.00
2023-03-24T11:45:40.356Z,27.00
2023-03-24T11:46:43.990Z,26.99
2023-03-24T11:47:46.552Z,26.99
2023-03-24T11:48:58.066Z,26.99
2023-03-24T11:50:13.497Z,26.98
2023-03-24T11:52:55.512Z,27.08
2023-03-24T11:53:59.084Z,26.97
2023-03-24T11:55:02.610Z,26.96
2023-03-24T11:56:21.716Z,26.97
2023-03-24T11:57:47.598Z,26.99
2023-03-24T11:59:07.824Z,27.01
2023-03-24T12:00:19.840Z,27.02
2023-03-24T12:01:30.023Z,27.02
2023-03-24T12:04:25.519Z,27.14
2023-03-24T12:05:40.949Z,27.03
2023-03-24T12:06:50.060Z,27.03
2023-03-24T12:09:33.456Z,27.14
2023-03-24T12:12:10.163Z,27.13
2023-03-24T12:13:26.006Z,27.02
2023-03-24T12:14:53.463Z,27.02
2023-03-24T12:16:12.620Z,27.02
2023-03-24T12:18:37.143Z,27.13
2023-03-24T12:20:00.866Z,27.01
2023-03-24T12:21:16.470Z,27.01
2023-03-24T12:22:35.205Z,27.01
2023-03-24T12:23:58.690Z,27.02
2023-03-24T12:26:36.597Z,27.13
2023-03-24T12:27:58.365Z,27.02
2023-03-24T12:29:33.428Z,27.01
2023-03-24T12:30:49.632Z,27.01
2023-03-24T12:32:15.536Z,27.01
2023-03-24T12:33:23.022Z,27.00
2023-03-24T12:34:29.298Z,26.99
2023-03-24T12:35:41.748Z,26.98
2023-03-24T12:37:07.037Z,26.97
2023-03-24T12:38:13.604Z,26.97
2023-03-24T12:39:20.707Z,26.99
2023-03-24T12:40:30.294Z,26.98
2023-03-24T12:41:51.473Z,26.98
2023-03-24T12:43:10.700Z,26.98
2023-03-24T12:44:40.683Z,26.99
2023-03-24T12:45:52.096Z,26.99
2023-03-24T12:47:08.668Z,26.98
2023-03-24T12:48:27.400Z,26.98
2023-03-24T12:50:04.902Z,26.98
2023-03-24T12:51:26.731Z,26.98
2023-03-24T12:54:26.117Z,27.10
2023-03-24T12:55:40.988Z,26.98
2023-03-24T12:56:50.322Z,26.99
2023-03-24T12:59:50.833Z,27.11
2023-03-24T13:01:09.595Z,27.02
2023-03-24T13:02:34.325Z,27.01
2023-03-24T13:03:42.942Z,27.02
2023-03-24T13:04:46.537Z,27.01
2023-03-24T13:07:08.354Z,27.08
2023-03-24T13:08:15.910Z,26.93
2023-03-24T13:09:55.591Z,26.91
2023-03-24T13:11:03.090Z,26.94
2023-03-24T13:12:31.607Z,26.94
2023-03-24T13:13:39.867Z,26.93
2023-03-24T13:14:56.870Z,26.94
2023-03-24T13:16:15.440Z,26.94
2023-03-24T13:17:21.886Z,26.93
2023-03-24T13:18:28.131Z,26.92
2023-03-24T13:19:30.848Z,26.91
2023-03-24T13:20:53.452Z,26.90
2023-03-24T13:21:57.027Z,26.91
2023-03-24T13:23:03.713Z,26.93
2023-03-24T13:24:14.480Z,26.94
2023-03-24T13:25:26.640Z,26.95
2023-03-24T13:28:06.377Z,27.05
2023-03-24T13:29:21.347Z,26.94
2023-03-24T13:30:31.691Z,26.90
2023-03-24T13:31:53.472Z,26.91
2023-03-24T13:35:44.436Z,26.94
2023-03-24T13:36:50.655Z,26.81
2023-03-24T13:37:59.684Z,26.78
2023-03-24T13:39:10.712Z,26.78
2023-03-24T13:40:23.737Z,26.80
2023-03-24T13:41:27.678Z,26.82
2023-03-24T13:44:01.637Z,26.95
2023-03-24T13:45:05.901Z,26.82
2023-03-24T13:46:13.630Z,26.83
2023-03-24T13:47:17.266Z,26.83
2023-03-24T13:48:29.152Z,26.78
2023-03-24T13:49:32.004Z,26.78
2023-03-24T13:50:37.983Z,26.78
2023-03-24T13:51:44.809Z,26.77
2023-03-24T13:52:50.963Z,26.74
2023-03-24T13:55:27.693Z,26.86
2023-03-24T13:56:35.408Z,26.77
2023-03-24T13:57:42.772Z,26.75
2023-03-24T14:00:22.154Z,26.84
2023-03-24T14:02:55.210Z,26.79
2023-03-24T14:04:22.291Z,26.70
2023-03-24T14:05:44.676Z,26.70
2023-03-24T14:06:52.686Z,26.69
2023-03-24T14:08:08.185Z,26.71
2023-03-24T14:09:23.084Z,26.70
2023-03-24T14:10:29.976Z,26.70
2023-03-24T14:11:40.487Z,26.69
2023-03-24T14:12:55.161Z,26.69
2023-03-24T14:14:17.747Z,26.71
2023-03-24T14:15:30.292Z,26.73
2023-03-24T14:16:47.125Z,26.78
2023-03-24T14:17:52.089Z,26.79
2023-03-24T14:19:15.673Z,26.78
2023-03-24T14:20:31.440Z,26.79
2023-03-24T14:21:35.645Z,26.80
2023-03-24T14:22:41.878Z,26.80
2023-03-24T14:23:49.645Z,26.81
2023-03-24T14:25:04.382Z,26.82
2023-03-24T14:26:17.504Z,26.82
2023-03-24T14:27:43.973Z,26.82
2023-03-24T14:28:52.827Z,26.83
2023-03-24T14:29:57.659Z,26.83
2023-03-24T14:31:15.731Z,26.82
2023-03-24T14:32:21.728Z,26.81
2023-03-24T14:33:26.107Z,26.82
2023-03-24T14:34:29.560Z,26.81
2023-03-24T14:35:47.950Z,26.82
2023-03-24T14:37:03.708Z,26.82
2023-03-24T14:38:23.784Z,26.84
2023-03-24T14:39:43.806Z,26.83
2023-03-24T14:40:51.616Z,26.81
2023-03-24T14:41:54.424Z,26.80
2023-03-24T14:43:00.243Z,26.81
2023-03-24T14:44:03.186Z,26.79
2023-03-24T14:45:28.355Z,26.79
2023-03-24T14:46:42.632Z,26.79
2023-03-24T14:47:45.809Z,26.80
2023-03-24T14:49:14.414Z,26.81
2023-03-24T14:50:21.497Z,26.80
2023-03-24T14:51:36.936Z,26.81
2023-03-24T14:52:57.170Z,26.80
2023-03-24T14:54:00.473Z,26.81
2023-03-24T14:56:19.331Z,26.91
2023-03-24T14:57:35.623Z,26.79
2023-03-24T14:58:38.909Z,26.80
2023-03-24T15:00:03.907Z,26.79
2023-03-24T15:01:08.115Z,26.79
2023-03-24T15:02:34.900Z,26.81
2023-03-24T15:03:59.987Z,26.81
2023-03-24T15:05:30.696Z,26.81
2023-03-24T15:06:34.409Z,26.79
2023-03-24T15:07:38.306Z,26.80
2023-03-24T15:08:48.050Z,26.79
2023-03-24T15:09:51.094Z,26.78
2023-03-24T15:11:01.467Z,26.78
2023-03-24T15:12:04.687Z,26.79
2023-03-24T15:13:27.819Z,26.79
2023-03-24T15:14:33.100Z,26.79
2023-03-24T15:15:36.178Z,26.79
2023-03-24T15:16:38.895Z,26.79
2023-03-24T15:17:44.352Z,26.75
2023-03-24T15:19:00.571Z,26.75
2023-03-24T15:19:56.532Z,26.80
2023-03-24T15:21:00.276Z,26.79
2023-03-24T15:22:05.163Z,26.79
2023-03-24T15:23:07.710Z,26.79
2023-03-24T15:24:33.742Z,26.81
2023-03-24T15:25:37.150Z,26.81
2023-03-24T15:26:40.328Z,26.81
2023-03-24T15:27:51.679Z,26.81
2023-03-24T15:29:00.809Z,26.81
2023-03-24T15:30:09.457Z,26.81
2023-03-24T15:31:13.039Z,26.81
2023-03-24T15:32:21.023Z,26.81
2023-03-24T15:33:23.996Z,26.82
2023-03-24T15:34:35.972Z,26.81
2023-03-24T15:35:39.619Z,26.82
2023-03-24T15:36:45.072Z,26.82
2023-03-24T15:37:56.659Z,26.84
2023-03-24T15:39:01.948Z,26.83
2023-03-24T15:40:15.773Z,26.83
2023-03-24T15:41:14.301Z,26.84
2023-03-24T15:42:19.245Z,26.82
2023-03-24T15:43:21.746Z,26.84
2023-03-24T15:44:26.399Z,26.85
2023-03-24T15:45:43.597Z,26.87
2023-03-24T15:46:47.914Z,26.85
2023-03-24T15:47:52.185Z,26.86
2023-03-24T15:48:57.440Z,26.85
2023-03-24T15:50:04.302Z,26.87
2023-03-24T15:51:10.330Z,26.85
2023-03-24T15:52:38.371Z,26.86